createdAt,value
2023-06-13T00:00:21.553Z,13.05
2023-06-13T00:02:50.329Z,12.98
2023-06-13T00:05:22.519Z,13.02
2023-06-13T00:07:52.486Z,13.03
2023-06-13T00:10:21.378Z,12.96
2023-06-13T00:12:52.486Z,12.83
2023-06-13T00:15:21.293Z,12.83
2023-06-13T00:17:52.086Z,12.79
2023-06-13T00:20:20.913Z,12.69
2023-06-13T00:22:50.184Z,12.66
2023-06-13T00:25:18.942Z,12.62
2023-06-13T00:27:48.638Z,12.62
2023-06-13T00:30:18.864Z,12.62
2023-06-13T00:32:47.742Z,12.57
2023-06-13T00:35:17.049Z,12.48
2023-06-13T00:37:47.353Z,12.47
2023-06-13T00:40:16.532Z,12.50
2023-06-13T00:42:47.083Z,12.44
2023-06-13T00:45:23.386Z,12.45
2023-06-13T00:47:56.498Z,12.48
2023-06-13T00:50:29.563Z,12.40
2023-06-13T00:53:00.713Z,12.36
2023-06-13T00:55:30.139Z,12.33
2023-06-13T00:58:07.478Z,12.39
2023-06-13T01:00:40.270Z,12.45
2023-06-13T01:03:11.025Z,12.55
2023-06-13T01:05:40.370Z,12.56
2023-06-13T01:08:12.396Z,12.52
2023-06-13T01:10:42.834Z,12.56
2023-06-13T01:13:25.551Z,12.60
2023-06-13T01:16:06.045Z,12.61
2023-06-13T01:18:41.141Z,12.60
2023-06-13T01:21:11.836Z,12.56
2023-06-13T01:23:51.147Z,12.57
2023-06-13T01:26:39.474Z,12.71
2023-06-13T01:29:10.892Z,12.98
2023-06-13T01:31:41.267Z,13.35
2023-06-13T01:34:14.542Z,13.73
2023-06-13T01:36:43.713Z,14.13
2023-06-13T01:39:12.573Z,14.48
2023-06-13T01:41:45.454Z,14.75
2023-06-13T01:44:22.051Z,15.05
2023-06-13T01:47:02.727Z,15.29
2023-06-13T01:49:43.034Z,15.50
2023-06-13T01:52:26.273Z,15.70
2023-06-13T01:55:02.199Z,15.90
2023-06-13T01:57:41.924Z,16.11
2023-06-13T02:00:16.503Z,16.26
2023-06-13T02:02:46.465Z,16.37
2023-06-13T02:05:15.820Z,16.41
2023-06-13T02:07:45.570Z,16.75
2023-06-13T02:10:14.746Z,16.93
2023-06-13T02:12:45.414Z,17.07
2023-06-13T02:15:14.370Z,17.09
2023-06-13T02:17:43.437Z,17.28
2023-06-13T02:20:14.179Z,17.41
2023-06-13T02:22:43.323Z,17.51
2023-06-13T02:25:13.191Z,17.56
2023-06-13T02:27:42.084Z,17.73
2023-06-13T02:30:13.632Z,17.83
2023-06-13T02:32:42.814Z,17.91
2023-06-13T02:35:13.756Z,18.08
2023-06-13T02:37:44.825Z,18.18
2023-06-13T02:40:14.235Z,18.30
2023-06-13T02:42:47.825Z,18.40
2023-06-13T02:45:18.384Z,18.44
2023-06-13T02:47:48.613Z,18.59
2023-06-13T02:50:18.170Z,18.75
2023-06-13T02:52:51.550Z,18.86
2023-06-13T02:55:22.118Z,18.88
2023-06-13T02:57:51.099Z,19.07
2023-06-13T03:00:21.704Z,19.16
2023-06-13T03:02:59.556Z,19.26
2023-06-13T03:05:29.068Z,19.45
2023-06-13T03:08:00.320Z,19.41
2023-06-13T03:10:30.997Z,19.27
2023-06-13T03:13:00.038Z,19.22
2023-06-13T03:15:30.178Z,19.23
2023-06-13T03:17:59.531Z,19.32
2023-06-13T03:20:28.695Z,19.50
2023-06-13T03:23:03.350Z,19.68
2023-06-13T03:25:32.386Z,19.86
2023-06-13T03:28:01.357Z,19.91
2023-06-13T03:30:31.978Z,19.90
2023-06-13T03:33:00.823Z,19.81
2023-06-13T03:35:31.832Z,19.52
2023-06-13T03:38:01.044Z,19.26
2023-06-13T03:40:33.778Z,18.96
2023-06-13T03:43:04.881Z,18.78
2023-06-13T03:45:37.160Z,18.50
2023-06-13T03:48:07.279Z,18.30
2023-06-13T03:50:36.220Z,18.17
2023-06-13T03:53:05.132Z,18.14
2023-06-13T03:55:50.056Z,18.03
2023-06-13T03:58:19.664Z,17.95
2023-06-13T04:00:50.357Z,17.97
2023-06-13T04:03:20.994Z,17.96
2023-06-13T04:05:51.965Z,18.00
2023-06-13T04:08:20.960Z,18.03
2023-06-13T04:10:49.817Z,18.09
2023-06-13T04:13:18.597Z,18.09
2023-06-13T04:15:47.610Z,18.09
2023-06-13T04:18:19.366Z,18.12
2023-06-13T04:20:49.215Z,18.23
2023-06-13T04:23:18.872Z,18.29
2023-06-13T04:25:47.704Z,18.37
2023-06-13T04:28:16.642Z,18.47
2023-06-13T04:30:48.065Z,18.51
2023-06-13T04:33:19.181Z,18.52
2023-06-13T04:35:49.646Z,18.65
2023-06-13T04:38:21.507Z,18.75
2023-06-13T04:40:50.918Z,18.79
2023-06-13T04:43:19.692Z,18.87
2023-06-13T04:45:49.952Z,18.94
2023-06-13T04:48:20.258Z,18.98
2023-06-13T04:50:50.377Z,19.05
2023-06-13T04:53:22.620Z,19.21
2023-06-13T04:55:51.366Z,19.35
2023-06-13T04:59:15.932Z,19.39
2023-06-13T05:01:45.173Z,19.57
2023-06-13T05:04:16.193Z,19.57
2023-06-13T05:06:45.289Z,19.58
2023-06-13T05:09:15.284Z,19.58
2023-06-13T05:11:44.464Z,19.73
2023-06-13T05:14:13.163Z,19.70
2023-06-13T05:16:41.973Z,19.82
2023-06-13T05:19:10.849Z,19.86
2023-06-13T05:21:41.037Z,19.99
2023-06-13T05:24:10.716Z,20.10
2023-06-13T05:26:39.566Z,20.14
2023-06-13T05:29:09.138Z,20.23
2023-06-13T05:31:38.097Z,20.39
2023-06-13T05:34:07.033Z,20.47
2023-06-13T05:36:36.017Z,20.55
2023-06-13T05:39:06.116Z,20.61
2023-06-13T05:41:35.231Z,20.69
2023-06-13T05:44:04.031Z,20.82
2023-06-13T05:46:32.914Z,20.90
2023-06-13T05:49:01.842Z,20.89
2023-06-13T05:51:31.722Z,20.96
2023-06-13T05:54:00.477Z,20.99
2023-06-13T05:56:32.964Z,21.13
2023-06-13T05:59:01.794Z,21.10
2023-06-13T06:01:31.561Z,21.10
2023-06-13T06:04:00.390Z,21.17
2023-06-13T06:06:29.281Z,21.24
2023-06-13T06:08:58.017Z,21.26
2023-06-13T06:11:26.772Z,21.29
2023-06-13T06:13:57.397Z,21.32
2023-06-13T06:16:26.123Z,21.41
2023-06-13T06:18:55.417Z,21.52
2023-06-13T06:21:24.448Z,21.56
2023-06-13T06:23:53.267Z,21.61
2023-06-13T06:26:23.386Z,21.54
2023-06-13T06:28:52.095Z,21.59
2023-06-13T06:31:22.535Z,21.62
2023-06-13T06:33:51.275Z,21.66
2023-06-13T06:36:20.908Z,21.73
2023-06-13T06:38:49.705Z,21.79
2023-06-13T06:41:18.630Z,21.77
2023-06-13T06:43:47.435Z,21.82
2023-06-13T06:46:17.257Z,21.82
2023-06-13T06:48:47.506Z,21.87
2023-06-13T06:51:16.249Z,21.97
2023-06-13T06:53:45.385Z,22.03
2023-06-13T06:56:14.154Z,22.07
2023-06-13T06:58:43.605Z,22.10
2023-06-13T07:01:15.467Z,22.13
2023-06-13T07:03:44.310Z,22.15
2023-06-13T07:06:14.774Z,22.11
2023-06-13T07:08:43.477Z,22.16
2023-06-13T07:11:12.215Z,22.22
2023-06-13T07:13:40.985Z,22.19
2023-06-13T07:16:09.950Z,22.24
2023-06-13T07:18:38.711Z,22.36
2023-06-13T07:21:07.490Z,22.41
2023-06-13T07:23:42.213Z,22.46
2023-06-13T07:26:18.709Z,22.50
2023-06-13T07:28:47.391Z,22.59
2023-06-13T07:31:16.318Z,22.59
2023-06-13T07:33:45.116Z,22.67
2023-06-13T07:36:14.531Z,22.61
2023-06-13T07:38:44.818Z,22.64
2023-06-13T07:41:25.975Z,22.66
2023-06-13T07:44:08.258Z,22.68
2023-06-13T07:46:37.264Z,22.73
2023-06-13T07:49:06.013Z,22.74
2023-06-13T07:51:35.153Z,22.68
2023-06-13T07:54:05.663Z,22.73
2023-06-13T07:56:38.358Z,22.76
2023-06-13T07:59:10.791Z,22.82
2023-06-13T08:01:39.616Z,22.95
2023-06-13T08:04:13.355Z,22.96
2023-06-13T08:06:46.150Z,22.96
2023-06-13T08:09:19.142Z,23.08
2023-06-13T08:11:48.628Z,23.07
2023-06-13T08:14:19.185Z,23.08
2023-06-13T08:16:52.493Z,23.07
2023-06-13T08:19:24.339Z,23.08
2023-06-13T08:21:56.689Z,23.04
2023-06-13T08:24:28.747Z,23.10
2023-06-13T08:26:58.712Z,23.18
2023-06-13T08:29:30.345Z,23.25
2023-06-13T08:32:03.571Z,23.32
2023-06-13T08:34:34.199Z,23.27
2023-06-13T08:37:06.210Z,23.29
2023-06-13T08:39:36.849Z,23.24
2023-06-13T08:42:12.156Z,23.27
2023-06-13T08:44:44.253Z,23.32
2023-06-13T08:47:37.941Z,23.30
2023-06-13T08:50:12.915Z,23.39
2023-06-13T08:52:54.414Z,23.45
2023-06-13T08:56:03.046Z,23.56
2023-06-13T08:58:30.133Z,23.53
2023-06-13T09:01:04.859Z,23.53
2023-06-13T09:03:41.578Z,23.50
2023-06-13T09:06:14.944Z,23.50
2023-06-13T09:08:45.366Z,23.56
2023-06-13T09:11:21.256Z,23.64
2023-06-13T09:14:03.136Z,23.78
2023-06-13T09:16:36.649Z,23.85
2023-06-13T09:19:15.700Z,23.92
2023-06-13T09:21:47.560Z,23.85
2023-06-13T09:24:27.979Z,23.93
2023-06-13T09:27:03.770Z,23.98
2023-06-13T09:29:39.491Z,23.92
2023-06-13T09:32:12.689Z,23.92
2023-06-13T09:34:43.696Z,24.01
2023-06-13T09:37:18.440Z,24.08
2023-06-13T09:40:02.109Z,24.21
2023-06-13T09:42:40.938Z,24.20
2023-06-13T09:45:11.682Z,24.25
2023-06-13T09:47:40.537Z,24.25
2023-06-13T09:50:24.515Z,24.17
2023-06-13T09:52:55.063Z,24.22
2023-06-13T09:55:26.994Z,24.29
2023-06-13T10:00:38.104Z,24.49
2023-06-13T10:03:20.371Z,24.47
2023-06-13T10:05:50.914Z,24.50
2023-06-13T10:08:22.444Z,24.50
2023-06-13T10:11:35.416Z,24.47
2023-06-13T10:14:23.258Z,24.52
2023-06-13T10:17:09.206Z,24.43
2023-06-13T10:19:43.102Z,24.50
2023-06-13T10:22:17.950Z,24.45
2023-06-13T10:24:56.333Z,24.46
2023-06-13T10:27:28.664Z,24.36
2023-06-13T10:30:32.689Z,24.46
2023-06-13T10:33:36.678Z,24.52
2023-06-13T10:36:26.824Z,24.65
2023-06-13T10:39:47.665Z,24.89
2023-06-13T10:42:43.532Z,24.81
2023-06-13T10:45:30.365Z,24.92
2023-06-13T10:48:10.032Z,24.99
2023-06-13T10:50:45.247Z,25.11
2023-06-13T10:53:27.029Z,25.19
2023-06-13T10:56:27.762Z,25.21
2023-06-13T10:59:05.390Z,25.16
2023-06-13T11:01:38.121Z,25.04
2023-06-13T11:04:15.636Z,25.21
2023-06-13T11:06:47.680Z,25.25
2023-06-13T11:09:19.925Z,25.30
2023-06-13T11:12:10.662Z,25.41
2023-06-13T11:14:45.853Z,25.70
2023-06-13T11:17:17.621Z,25.73
2023-06-13T11:19:48.817Z,25.79
2023-06-13T11:22:19.901Z,25.68
2023-06-13T11:24:54.479Z,25.66
2023-06-13T11:27:33.563Z,25.66
2023-06-13T11:30:03.179Z,25.69
2023-06-13T11:32:38.129Z,25.75
2023-06-13T11:35:12.292Z,25.94
2023-06-13T11:37:57.713Z,26.09
2023-06-13T11:40:40.965Z,26.02
2023-06-13T11:43:20.349Z,26.14
2023-06-13T11:45:54.255Z,26.29
2023-06-13T11:48:42.453Z,26.49
2023-06-13T11:51:20.116Z,26.49
2023-06-13T11:53:51.842Z,26.57
2023-06-13T11:56:22.726Z,26.51
2023-06-13T11:58:52.229Z,26.54
2023-06-13T12:01:24.031Z,26.19
2023-06-13T12:03:59.477Z,26.13
2023-06-13T12:06:29.061Z,26.22
2023-06-13T12:08:59.003Z,26.19
2023-06-13T12:11:30.568Z,26.28
2023-06-13T12:14:01.921Z,26.32
2023-06-13T12:16:34.500Z,26.26
2023-06-13T12:19:06.465Z,26.38
2023-06-13T12:21:38.462Z,26.62
2023-06-13T12:24:10.886Z,26.52
2023-06-13T12:26:46.672Z,26.67
2023-06-13T12:29:18.397Z,26.70
2023-06-13T12:31:49.408Z,26.76
2023-06-13T12:34:28.515Z,26.72
2023-06-13T12:37:03.538Z,26.72
2023-06-13T12:39:33.637Z,26.81
2023-06-13T12:42:07.462Z,26.92
2023-06-13T12:44:38.120Z,27.06
2023-06-13T12:47:08.579Z,27.18
2023-06-13T12:49:40.615Z,27.25
2023-06-13T12:52:17.603Z,27.30
2023-06-13T12:54:46.444Z,27.23
2023-06-13T12:57:19.011Z,27.20
2023-06-13T13:00:01.887Z,27.09
2023-06-13T13:02:33.761Z,26.93
2023-06-13T13:05:05.208Z,26.94
2023-06-13T13:07:34.657Z,26.98
2023-06-13T13:10:03.791Z,26.98
2023-06-13T13:12:33.281Z,27.04
2023-06-13T13:15:02.478Z,27.09
2023-06-13T13:17:35.299Z,27.08
2023-06-13T13:20:06.719Z,27.15
2023-06-13T13:22:35.515Z,27.12
2023-06-13T13:25:04.676Z,27.00
2023-06-13T13:27:34.347Z,27.14
2023-06-13T13:30:03.255Z,27.00
2023-06-13T13:32:35.647Z,27.04
2023-06-13T13:35:07.775Z,26.93
2023-06-13T13:37:36.655Z,27.07
2023-06-13T13:40:06.618Z,27.09
2023-06-13T13:42:38.055Z,26.99
2023-06-13T13:45:09.210Z,26.90
2023-06-13T13:47:39.943Z,26.87
2023-06-13T13:50:11.676Z,26.69
2023-06-13T13:52:40.772Z,26.60
2023-06-13T13:55:12.234Z,26.69
2023-06-13T13:57:41.063Z,26.77
2023-06-13T14:00:15.066Z,26.86
2023-06-13T14:02:44.038Z,26.92
2023-06-13T14:05:14.288Z,26.60
2023-06-13T14:07:44.765Z,26.60
2023-06-13T14:10:13.643Z,26.90
2023-06-13T14:12:42.442Z,26.96
2023-06-13T14:15:11.578Z,27.27
2023-06-13T14:17:41.095Z,27.40
2023-06-13T14:20:13.848Z,27.18
2023-06-13T14:22:45.080Z,27.51
2023-06-13T14:25:14.262Z,27.60
2023-06-13T14:27:43.134Z,27.51
2023-06-13T14:30:17.963Z,27.30
2023-06-13T14:32:47.725Z,27.32
2023-06-13T14:35:17.730Z,27.27
2023-06-13T14:37:48.458Z,27.53
2023-06-13T14:40:18.205Z,27.62
2023-06-13T14:42:49.206Z,27.41
2023-06-13T14:45:18.727Z,26.83
2023-06-13T14:47:52.854Z,26.86
2023-06-13T14:50:23.361Z,27.21
2023-06-13T14:52:53.664Z,27.41
2023-06-13T14:55:23.380Z,27.39
2023-06-13T14:57:52.509Z,27.27
2023-06-13T15:00:22.337Z,26.94
2023-06-13T15:02:53.534Z,27.30
2023-06-13T15:05:22.802Z,26.88
2023-06-13T15:07:53.574Z,27.02
2023-06-13T15:10:22.688Z,27.22
2023-06-13T15:12:51.531Z,26.99
2023-06-13T15:15:20.401Z,27.37
2023-06-13T15:17:49.701Z,27.46
2023-06-13T15:20:19.268Z,27.72
2023-06-13T15:22:48.399Z,27.66
2023-06-13T15:25:19.066Z,27.90
2023-06-13T15:27:49.155Z,27.80
2023-06-13T15:30:18.659Z,27.86
2023-06-13T15:32:47.865Z,27.92
2023-06-13T15:35:16.924Z,27.61
2023-06-13T15:37:45.843Z,27.50
2023-06-13T15:40:15.856Z,27.58
2023-06-13T15:42:46.068Z,27.76
2023-06-13T15:45:14.997Z,27.58
2023-06-13T15:47:43.681Z,27.90
2023-06-13T15:50:13.480Z,27.94
2023-06-13T15:52:42.340Z,27.64
2023-06-13T15:55:11.338Z,28.17
2023-06-13T15:57:40.400Z,28.47
2023-06-13T16:00:12.442Z,27.86
2023-06-13T16:02:43.341Z,27.47
2023-06-13T16:05:13.644Z,27.50
2023-06-13T16:07:43.929Z,27.32
2023-06-13T16:10:16.533Z,27.53
2023-06-13T16:12:47.127Z,27.86
2023-06-13T16:15:18.858Z,27.04
2023-06-13T16:17:56.488Z,26.93
2023-06-13T16:20:33.084Z,27.34
2023-06-13T16:23:05.809Z,27.28
2023-06-13T16:25:39.310Z,27.28
2023-06-13T16:28:39.831Z,27.10
2023-06-13T16:31:10.137Z,27.60
2023-06-13T16:33:43.462Z,27.36
2023-06-13T16:36:13.894Z,27.83
2023-06-13T16:38:43.553Z,28.10
2023-06-13T16:41:12.340Z,28.06
2023-06-13T16:43:49.202Z,27.42
2023-06-13T16:46:23.348Z,27.94
2023-06-13T16:48:54.891Z,28.06
2023-06-13T16:51:23.843Z,27.97
2023-06-13T16:53:55.547Z,27.49
2023-06-13T16:56:25.545Z,27.78
2023-06-13T16:58:54.428Z,27.78
2023-06-13T17:01:25.053Z,27.95
2023-06-13T17:03:54.407Z,27.90
2023-06-13T17:06:24.492Z,27.99
2023-06-13T17:08:54.763Z,27.62
2023-06-13T17:11:23.796Z,27.82
2023-06-13T17:13:52.646Z,27.81
2023-06-13T17:16:23.276Z,27.70
2023-06-13T17:18:52.167Z,27.47
2023-06-13T17:21:21.041Z,27.55
2023-06-13T17:23:49.907Z,27.67
2023-06-13T17:26:18.819Z,27.65
2023-06-13T17:28:49.836Z,27.14
2023-06-13T17:31:20.770Z,27.25
2023-06-13T17:33:52.442Z,27.62
2023-06-13T17:36:22.434Z,27.43
2023-06-13T17:38:51.563Z,27.42
2023-06-13T17:41:20.412Z,27.74
2023-06-13T17:43:49.274Z,28.05
2023-06-13T17:46:18.548Z,27.60
2023-06-13T17:48:47.453Z,27.46
2023-06-13T17:51:18.457Z,27.25
2023-06-13T17:53:48.771Z,27.27
2023-06-13T17:56:17.642Z,27.38
2023-06-13T17:58:46.927Z,27.37
2023-06-13T18:01:16.578Z,26.88
2023-06-13T18:03:47.826Z,27.18
2023-06-13T18:06:21.903Z,26.88
2023-06-13T18:08:51.549Z,26.81
2023-06-13T18:11:20.798Z,26.62
2023-06-13T18:13:49.556Z,26.76
2023-06-13T18:16:18.570Z,26.41
2023-06-13T18:18:47.495Z,26.38
2023-06-13T18:21:30.528Z,26.03
2023-06-13T18:24:00.441Z,25.78
2023-06-13T18:26:29.608Z,25.39
2023-06-13T18:28:58.725Z,24.89
2023-06-13T18:31:27.876Z,24.69
2023-06-13T18:33:56.831Z,24.48
2023-06-13T18:36:38.878Z,24.29
2023-06-13T18:39:20.379Z,23.52
2023-06-13T18:41:55.875Z,23.47
2023-06-13T18:44:31.556Z,23.42
2023-06-13T18:47:00.535Z,23.06
2023-06-13T18:49:29.359Z,23.35
2023-06-13T18:51:59.631Z,23.20
2023-06-13T18:54:28.517Z,23.04
2023-06-13T18:56:58.547Z,22.79
2023-06-13T18:59:27.519Z,22.66
2023-06-13T19:01:57.364Z,22.48
2023-06-13T19:04:28.044Z,22.45
2023-06-13T19:06:58.366Z,22.32
2023-06-13T19:09:27.569Z,22.22
2023-06-13T19:11:56.532Z,22.05
2023-06-13T19:14:25.417Z,21.97
2023-06-13T19:16:54.251Z,21.86
2023-06-13T19:19:23.002Z,21.79
2023-06-13T19:21:56.255Z,21.59
2023-06-13T19:24:26.712Z,21.37
2023-06-13T19:26:55.576Z,21.23
2023-06-13T19:29:27.160Z,21.06
2023-06-13T19:31:56.281Z,20.89
2023-06-13T19:34:26.888Z,20.74
2023-06-13T19:36:56.749Z,20.65
2023-06-13T19:39:30.634Z,20.52
2023-06-13T19:42:00.348Z,20.47
2023-06-13T19:44:32.043Z,20.38
2023-06-13T19:47:02.192Z,20.43
2023-06-13T19:49:31.781Z,20.40
2023-06-13T19:52:02.107Z,20.36
2023-06-13T19:54:32.528Z,20.30
2023-06-13T19:57:01.766Z,20.26
2023-06-13T19:59:32.768Z,20.26
2023-06-13T20:02:01.652Z,20.12
2023-06-13T20:04:30.673Z,20.08
2023-06-13T20:06:59.595Z,19.99
2023-06-13T20:09:28.674Z,19.98
2023-06-13T20:12:00.912Z,19.88
2023-06-13T20:14:29.889Z,19.77
2023-06-13T20:16:59.656Z,19.64
2023-06-13T20:19:30.810Z,19.56
2023-06-13T20:21:59.969Z,19.38
2023-06-13T20:24:29.002Z,19.28
2023-06-13T20:26:59.243Z,19.11
2023-06-13T20:29:27.942Z,19.00
2023-06-13T20:31:56.749Z,18.87
2023-06-13T20:34:25.597Z,18.79
2023-06-13T20:36:54.331Z,18.66
2023-06-13T20:39:23.077Z,18.57
2023-06-13T20:41:54.056Z,18.43
2023-06-13T20:44:29.481Z,18.31
2023-06-13T20:47:00.246Z,18.26
2023-06-13T20:49:31.720Z,18.14
2023-06-13T20:52:00.692Z,18.12
2023-06-13T20:54:30.469Z,17.98
2023-06-13T20:56:59.181Z,17.96
2023-06-13T20:59:31.522Z,17.86
2023-06-13T21:02:00.357Z,17.82
2023-06-13T21:04:29.118Z,17.77
2023-06-13T21:06:57.856Z,17.70
2023-06-13T21:09:26.669Z,17.61
2023-06-13T21:11:55.410Z,17.59
2023-06-13T21:14:24.375Z,17.56
2023-06-13T21:16:56.051Z,17.54
2023-06-13T21:19:25.751Z,17.48
2023-06-13T21:21:55.499Z,17.44
2023-06-13T21:24:24.453Z,17.39
2023-06-13T21:26:53.463Z,17.38
2023-06-13T21:29:22.604Z,17.26
2023-06-13T21:31:51.490Z,17.26
2023-06-13T21:34:21.815Z,17.10
2023-06-13T21:36:51.258Z,17.11
2023-06-13T21:39:20.834Z,16.99
2023-06-13T21:41:49.690Z,16.80
2023-06-13T21:44:19.610Z,16.65
2023-06-13T21:46:48.497Z,16.60
2023-06-13T21:49:17.328Z,16.47
2023-06-13T21:51:47.565Z,16.41
2023-06-13T21:54:16.314Z,16.47
2023-06-13T21:56:45.097Z,16.42
2023-06-13T21:59:13.925Z,16.34
2023-06-13T22:01:42.983Z,16.32
2023-06-13T22:04:12.252Z,16.30
2023-06-13T22:06:41.868Z,16.19
2023-06-13T22:09:12.109Z,16.06
2023-06-13T22:11:41.024Z,15.96
2023-06-13T22:14:09.955Z,15.86
2023-06-13T22:16:38.721Z,15.86
2023-06-13T22:19:09.468Z,15.78
2023-06-13T22:21:41.630Z,15.79
2023-06-13T22:24:11.934Z,15.74
2023-06-13T22:26:41.036Z,15.67
2023-06-13T22:29:10.717Z,15.65
2023-06-13T22:31:39.513Z,15.59
2023-06-13T22:34:08.443Z,15.60
2023-06-13T22:36:38.940Z,15.55
2023-06-13T22:39:08.225Z,15.48
2023-06-13T22:41:38.347Z,15.49
2023-06-13T22:44:07.448Z,15.41
2023-06-13T22:46:36.976Z,15.40
2023-06-13T22:49:06.682Z,15.43
2023-06-13T22:51:37.574Z,15.39
2023-06-13T22:54:06.522Z,15.35
2023-06-13T22:56:35.464Z,15.32
2023-06-13T22:59:05.584Z,15.23
2023-06-13T23:01:35.492Z,15.16
2023-06-13T23:04:04.566Z,15.14
2023-06-13T23:06:34.975Z,15.12
2023-06-13T23:09:06.248Z,15.06
2023-06-13T23:11:35.274Z,15.02
2023-06-13T23:14:05.499Z,15.02
2023-06-13T23:16:34.264Z,15.04
2023-06-13T23:19:03.183Z,15.00
2023-06-13T23:21:32.022Z,15.09
2023-06-13T23:24:00.865Z,15.02
2023-06-13T23:26:31.673Z,15.04
2023-06-13T23:29:00.613Z,14.98
2023-06-13T23:31:32.747Z,14.90
2023-06-13T23:34:01.578Z,14.88
2023-06-13T23:36:30.600Z,14.82
2023-06-13T23:38:59.865Z,14.76
2023-06-13T23:41:29.571Z,14.71
2023-06-13T23:43:58.261Z,14.67
2023-06-13T23:46:27.124Z,14.58
2023-06-13T23:48:57.272Z,14.51
2023-06-13T23:51:26.012Z,14.41
2023-06-13T23:53:55.915Z,14.39
2023-06-13T23:56:24.735Z,14.32
2023-06-13T23:58:53.518Z,14.22
